Terminal Aerodrome Forecast
Issued by NWS

Home | Current Version | Previous Version | Text Only | Print | Product List | Glossary On
Versions: 1 2 3 4 5 6 7 8 9 10 11 12 13 14 15 16
000
FTUS45 KABQ 230539
TAFSAF
TAF
KSAF 230539Z 2306/2406 28008KT P6SM OVC035
     FM231300 23008KT P6SM BKN060
     FM231800 23018G28KT P6SM SCT060 SCT100
     FM240200 24015G25KT 5SM -SN OVC019=

USA.gov is the U.S. government's official web portal to all federal, state and local government web resources and services.